createdAt,value
2022-12-23T00:00:40.234Z,4.43
2022-12-23T00:03:07.585Z,5.35
2022-12-23T00:05:39.092Z,4.90
2022-12-23T00:08:07.209Z,4.90
2022-12-23T00:10:38.550Z,5.30
2022-12-23T00:13:25.565Z,4.32
2022-12-23T00:16:10.446Z,4.43
2022-12-23T00:18:38.051Z,4.45
2022-12-23T00:21:13.489Z,5.55
2022-12-23T00:23:42.394Z,5.60
2022-12-23T00:26:23.661Z,5.15
2022-12-23T00:28:51.242Z,5.57
2022-12-23T00:31:19.061Z,5.78
2022-12-23T00:33:48.817Z,5.30
2022-12-23T00:36:29.580Z,5.60
2022-12-23T00:39:16.320Z,7.13
2022-12-23T00:42:02.446Z,6.63
2022-12-23T00:44:29.745Z,7.25
2022-12-23T00:46:57.002Z,6.82
2022-12-23T00:49:42.829Z,6.97
2022-12-23T00:52:13.219Z,7.88
2022-12-23T00:54:40.608Z,7.22
2022-12-23T00:57:07.889Z,6.80
2022-12-23T00:59:35.043Z,7.40
2022-12-23T01:02:20.939Z,7.68
2022-12-23T01:05:06.868Z,7.55
2022-12-23T01:07:35.030Z,7.63
2022-12-23T01:10:02.275Z,6.47
2022-12-23T01:12:29.753Z,6.93
2022-12-23T01:14:57.140Z,7.38
2022-12-23T01:17:24.558Z,7.30
2022-12-23T01:19:52.300Z,7.35
2022-12-23T01:22:19.916Z,6.57
2022-12-23T01:24:47.122Z,6.28
2022-12-23T01:27:14.561Z,7.55
2022-12-23T01:29:41.992Z,6.60
2022-12-23T01:32:09.721Z,6.20
2022-12-23T01:34:37.904Z,7.05
2022-12-23T01:37:05.350Z,5.43
2022-12-23T01:39:33.644Z,6.85
2022-12-23T01:42:19.535Z,5.88
2022-12-23T01:44:50.772Z,5.50
2022-12-23T01:47:26.603Z,5.22
2022-12-23T01:50:24.428Z,5.85
2022-12-23T01:53:01.725Z,6.15
2022-12-23T01:55:37.291Z,5.53
2022-12-23T01:58:11.018Z,5.32
2022-12-23T02:00:56.922Z,5.25
2022-12-23T02:03:42.459Z,5.97
2022-12-23T02:06:40.247Z,5.55
2022-12-23T02:09:30.787Z,5.78
2022-12-23T02:12:21.641Z,5.60
2022-12-23T02:15:26.338Z,5.93
2022-12-23T02:18:16.988Z,7.47
2022-12-23T02:21:11.612Z,5.97
2022-12-23T02:23:47.551Z,6.85
2022-12-23T02:26:26.664Z,6.53
2022-12-23T02:29:21.756Z,5.88
2022-12-23T02:32:01.000Z,6.93
2022-12-23T02:34:56.895Z,6.95
2022-12-23T02:37:46.133Z,6.88
2022-12-23T02:40:20.490Z,7.50
2022-12-23T02:42:50.229Z,7.45
2022-12-23T02:45:21.802Z,8.23
2022-12-23T02:47:52.662Z,8.55
2022-12-23T02:50:25.381Z,8.10
2022-12-23T02:52:52.639Z,9.32
2022-12-23T02:55:22.501Z,8.70
2022-12-23T02:57:50.125Z,8.48
2022-12-23T03:00:18.382Z,10.63
2022-12-23T03:02:45.947Z,9.05
2022-12-23T03:05:32.158Z,8.90
2022-12-23T03:08:02.719Z,10.30
2022-12-23T03:10:49.201Z,9.43
2022-12-23T03:13:48.933Z,9.20
2022-12-23T03:16:23.215Z,9.52
2022-12-23T03:19:02.407Z,8.75
2022-12-23T03:21:38.185Z,9.52
2022-12-23T03:24:17.362Z,8.80
2022-12-23T03:26:52.402Z,9.35
2022-12-23T03:29:30.099Z,7.85
2022-12-23T03:31:58.573Z,7.85
2022-12-23T03:34:27.665Z,8.40
2022-12-23T03:36:57.364Z,8.70
2022-12-23T03:39:31.216Z,7.97
2022-12-23T03:42:02.206Z,8.23
2022-12-23T03:44:37.735Z,7.55
2022-12-23T03:47:07.981Z,7.65
2022-12-23T03:50:08.207Z,7.68
2022-12-23T03:52:49.842Z,8.68
2022-12-23T03:55:48.066Z,9.55
2022-12-23T03:58:33.907Z,7.60
2022-12-23T04:01:12.466Z,8.82
2022-12-23T04:04:07.032Z,8.30
2022-12-23T04:06:39.506Z,8.70
2022-12-23T04:09:06.758Z,9.23
2022-12-23T04:11:34.711Z,9.80
2022-12-23T04:14:02.057Z,9.10
2022-12-23T04:16:29.620Z,10.02
2022-12-23T04:18:56.897Z,11.05
2022-12-23T04:21:24.106Z,10.85
2022-12-23T04:23:51.614Z,11.35
2022-12-23T04:26:18.950Z,10.68
2022-12-23T04:28:46.602Z,13.35
2022-12-23T04:31:14.169Z,12.93
2022-12-23T04:33:41.447Z,12.70
2022-12-23T04:36:09.046Z,13.35
2022-12-23T04:38:36.295Z,14.00
2022-12-23T04:41:03.845Z,14.68
2022-12-23T04:43:31.691Z,14.68
2022-12-23T04:45:59.062Z,12.25
2022-12-23T04:48:27.163Z,13.88
2022-12-23T04:50:54.480Z,12.88
2022-12-23T04:53:21.717Z,13.77
2022-12-23T04:55:51.303Z,14.00
2022-12-23T04:58:22.042Z,13.55
2022-12-23T05:00:49.453Z,12.05
2022-12-23T05:03:16.819Z,14.05
2022-12-23T05:05:44.593Z,13.43
2022-12-23T05:08:11.967Z,12.32
2022-12-23T05:10:39.312Z,11.77
2022-12-23T05:13:06.870Z,12.43
2022-12-23T05:15:34.411Z,12.30
2022-12-23T05:18:17.876Z,12.55
2022-12-23T05:20:45.406Z,12.32
2022-12-23T05:23:12.801Z,11.55
2022-12-23T05:25:41.611Z,12.10
2022-12-23T05:28:09.617Z,11.77
2022-12-23T05:30:36.954Z,10.68
2022-12-23T05:33:04.250Z,10.85
2022-12-23T05:35:31.916Z,10.85
2022-12-23T05:37:59.150Z,9.43
2022-12-23T05:40:27.935Z,9.35
2022-12-23T05:42:57.599Z,8.80
2022-12-23T05:45:25.023Z,9.82
2022-12-23T05:47:52.681Z,8.77
2022-12-23T05:50:19.977Z,9.82
2022-12-23T05:52:47.211Z,9.35
2022-12-23T05:55:15.511Z,9.20
2022-12-23T05:57:42.725Z,8.23
2022-12-23T06:00:11.378Z,7.68
2022-12-23T06:02:39.301Z,7.68
2022-12-23T06:05:07.034Z,9.25
2022-12-23T06:07:35.420Z,9.15
2022-12-23T06:10:03.184Z,8.77
2022-12-23T06:12:30.619Z,8.90
2022-12-23T06:14:58.107Z,9.32
2022-12-23T06:17:25.770Z,9.50
2022-12-23T06:19:53.574Z,9.57
2022-12-23T06:22:21.786Z,10.32
2022-12-23T06:24:49.676Z,11.90
2022-12-23T06:27:17.364Z,12.30
2022-12-23T06:29:44.571Z,12.93
2022-12-23T06:32:11.918Z,12.55
2022-12-23T06:34:39.255Z,12.07
2022-12-23T06:37:07.653Z,12.80
2022-12-23T06:39:34.995Z,12.63
2022-12-23T06:42:02.214Z,12.35
2022-12-23T06:44:30.177Z,13.55
2022-12-23T06:46:57.437Z,13.40
2022-12-23T06:49:25.078Z,12.00
2022-12-23T06:51:52.291Z,13.48
2022-12-23T06:54:19.549Z,13.02
2022-12-23T06:56:46.781Z,12.75
2022-12-23T06:59:14.202Z,12.48
2022-12-23T07:01:41.649Z,13.27
2022-12-23T07:04:09.061Z,12.98
2022-12-23T07:06:36.492Z,13.00
2022-12-23T07:09:04.178Z,12.13
2022-12-23T07:11:31.896Z,12.68
2022-12-23T07:14:00.441Z,12.30
2022-12-23T07:16:27.778Z,12.27
2022-12-23T07:18:55.207Z,11.25
2022-12-23T07:21:29.068Z,13.73
2022-12-23T07:23:57.163Z,13.35
2022-12-23T07:26:24.771Z,13.90
2022-12-23T07:28:51.986Z,12.23
2022-12-23T07:31:19.344Z,13.45
2022-12-23T07:33:46.591Z,13.65
2022-12-23T07:36:16.766Z,11.95
2022-12-23T07:38:44.278Z,15.38
2022-12-23T07:41:11.522Z,14.05
2022-12-23T07:43:38.995Z,13.50
2022-12-23T07:46:08.930Z,12.40
2022-12-23T07:48:36.349Z,13.13
2022-12-23T07:51:03.974Z,13.07
2022-12-23T07:53:31.527Z,14.18
2022-12-23T07:55:58.915Z,14.10
2022-12-23T07:58:26.146Z,13.13
2022-12-23T08:01:04.137Z,14.65
2022-12-23T08:03:31.452Z,12.68
2022-12-23T08:06:08.923Z,11.98
2022-12-23T08:08:36.273Z,11.75
2022-12-23T08:11:04.692Z,13.63
2022-12-23T08:13:33.336Z,10.60
2022-12-23T08:16:01.332Z,10.70
2022-12-23T08:18:33.282Z,12.18
2022-12-23T08:21:02.179Z,10.57
2022-12-23T08:23:29.983Z,11.95
2022-12-23T08:26:09.330Z,10.57
2022-12-23T08:28:37.105Z,10.90
2022-12-23T08:31:17.694Z,11.20
2022-12-23T08:33:47.180Z,11.87
2022-12-23T08:36:20.793Z,10.80
2022-12-23T08:38:50.992Z,10.55
2022-12-23T08:41:20.012Z,10.27
2022-12-23T08:43:47.561Z,9.90
2022-12-23T08:46:14.862Z,9.55
2022-12-23T08:48:48.720Z,9.65
2022-12-23T08:51:17.001Z,9.55
2022-12-23T08:53:44.561Z,9.95
2022-12-23T08:56:17.242Z,9.95
2022-12-23T08:58:45.650Z,8.75
2022-12-23T09:01:14.276Z,10.18
2022-12-23T09:03:42.025Z,10.10
2022-12-23T09:06:17.406Z,9.90
2022-12-23T09:08:46.192Z,9.57
2022-12-23T09:11:15.141Z,9.48
2022-12-23T09:13:42.839Z,9.32
2022-12-23T09:16:10.786Z,10.18
2022-12-23T09:18:38.149Z,8.90
2022-12-23T09:21:06.948Z,8.60
2022-12-23T09:23:34.943Z,9.82
2022-12-23T09:26:04.554Z,9.13
2022-12-23T09:28:31.796Z,9.90
2022-12-23T09:31:00.928Z,9.57
2022-12-23T09:33:28.173Z,9.77
2022-12-23T09:35:59.898Z,9.88
2022-12-23T09:38:27.195Z,9.18
2022-12-23T09:40:54.379Z,9.63
2022-12-23T09:43:33.707Z,10.98
2022-12-23T09:46:19.118Z,11.23
2022-12-23T09:49:03.817Z,11.73
2022-12-23T09:51:32.626Z,11.20
2022-12-23T09:54:01.152Z,9.88
2022-12-23T09:56:38.035Z,11.68
2022-12-23T09:59:34.522Z,10.40
2022-12-23T10:02:56.353Z,10.15
2022-12-23T10:05:52.912Z,10.25
2022-12-23T10:08:28.829Z,10.63
2022-12-23T10:11:01.997Z,10.45
2022-12-23T10:13:39.710Z,11.00
2022-12-23T10:16:21.213Z,10.95
2022-12-23T10:21:51.696Z,10.03
2022-12-23T10:24:18.953Z,11.68
2022-12-23T10:26:56.617Z,11.05
2022-12-23T10:29:25.433Z,11.90
2022-12-23T10:32:17.056Z,11.07
2022-12-23T10:34:53.383Z,11.35
2022-12-23T10:37:20.962Z,10.95
2022-12-23T10:39:57.245Z,9.63
2022-12-23T10:42:24.462Z,11.75
2022-12-23T10:45:00.374Z,10.48
2022-12-23T10:47:37.449Z,10.32
2022-12-23T10:50:07.767Z,9.32
2022-12-23T10:52:35.903Z,10.87
2022-12-23T10:55:05.342Z,9.95
2022-12-23T10:57:32.934Z,9.50
2022-12-23T11:00:00.575Z,10.75
2022-12-23T11:03:00.547Z,10.15
2022-12-23T11:05:28.138Z,10.73
2022-12-23T11:07:55.451Z,10.38
2022-12-23T11:10:25.695Z,11.82
2022-12-23T11:12:53.796Z,9.98
2022-12-23T11:15:27.162Z,10.32
2022-12-23T11:17:59.166Z,9.20
2022-12-23T11:20:26.578Z,10.48
2022-12-23T11:23:03.888Z,10.30
2022-12-23T11:25:41.780Z,10.23
2022-12-23T11:28:11.946Z,9.73
2022-12-23T11:30:39.208Z,10.98
2022-12-23T11:33:06.685Z,11.43
2022-12-23T11:35:36.667Z,10.82
2022-12-23T11:38:03.999Z,11.10
2022-12-23T11:40:33.924Z,11.13
2022-12-23T11:43:02.519Z,10.57
2022-12-23T11:45:36.682Z,11.57
2022-12-23T11:48:04.907Z,11.90
2022-12-23T11:50:33.225Z,11.82
2022-12-23T11:53:24.113Z,12.82
2022-12-23T11:56:06.998Z,12.65
2022-12-23T11:58:39.849Z,11.57
2022-12-23T12:01:08.267Z,12.73
2022-12-23T12:03:39.753Z,12.25
2022-12-23T12:06:07.293Z,13.02
2022-12-23T12:08:38.303Z,12.82
2022-12-23T12:11:08.519Z,12.13
2022-12-23T12:13:41.517Z,13.05
2022-12-23T12:16:27.237Z,13.00
2022-12-23T12:18:56.069Z,13.25
2022-12-23T12:21:25.433Z,11.65
2022-12-23T12:24:18.292Z,11.50
2022-12-23T12:26:51.014Z,11.85
2022-12-23T12:29:32.760Z,11.73
2022-12-23T12:34:37.262Z,11.80
2022-12-23T12:37:04.738Z,11.68
2022-12-23T12:39:41.014Z,11.70
2022-12-23T12:42:15.564Z,12.40
2022-12-23T12:45:13.104Z,11.75
2022-12-23T12:47:56.018Z,11.77
2022-12-23T12:50:29.559Z,12.48
2022-12-23T12:53:00.240Z,11.98
2022-12-23T12:55:35.055Z,11.83
2022-12-23T12:58:04.984Z,11.63
2022-12-23T13:00:42.053Z,11.88
2022-12-23T13:03:15.262Z,11.00
2022-12-23T13:06:04.709Z,11.00
2022-12-23T13:08:54.323Z,11.38
2022-12-23T13:11:44.991Z,11.00
2022-12-23T13:14:18.385Z,10.48
2022-12-23T13:16:59.796Z,11.23
2022-12-23T13:19:33.910Z,10.30
2022-12-23T13:22:04.569Z,9.75
2022-12-23T13:24:43.982Z,10.98
2022-12-23T13:27:14.167Z,11.18
2022-12-23T13:29:50.973Z,10.52
2022-12-23T13:32:24.820Z,10.43
2022-12-23T13:35:03.742Z,10.47
2022-12-23T13:37:51.771Z,10.40
2022-12-23T13:40:38.029Z,10.88
2022-12-23T13:43:26.094Z,9.93
2022-12-23T13:45:53.911Z,9.55
2022-12-23T13:48:38.334Z,10.40
2022-12-23T13:51:16.170Z,10.70
2022-12-23T13:53:49.570Z,10.65
2022-12-23T13:56:23.987Z,10.73
2022-12-23T13:58:51.231Z,11.45
2022-12-23T14:01:18.589Z,11.88
2022-12-23T14:03:47.785Z,11.07
2022-12-23T14:06:41.971Z,11.65
2022-12-23T14:09:12.815Z,11.15
2022-12-23T14:11:40.140Z,10.88
2022-12-23T14:14:07.394Z,10.73
2022-12-23T14:16:46.652Z,11.73
2022-12-23T14:19:42.673Z,9.98
2022-12-23T14:22:41.185Z,12.50
2022-12-23T14:25:43.769Z,12.13
2022-12-23T14:28:13.717Z,12.07
2022-12-23T14:30:45.004Z,13.30
2022-12-23T14:35:43.238Z,10.57
2022-12-23T14:38:16.380Z,11.35
2022-12-23T14:40:43.675Z,13.48
2022-12-23T14:43:26.433Z,13.70
2022-12-23T14:45:55.080Z,12.80
2022-12-23T14:48:34.686Z,12.77
2022-12-23T14:51:13.974Z,12.85
2022-12-23T14:53:53.845Z,12.68
2022-12-23T14:56:36.228Z,13.43
2022-12-23T14:59:24.834Z,15.70
2022-12-23T15:01:54.138Z,14.48
2022-12-23T15:05:04.456Z,12.45
2022-12-23T15:07:39.266Z,11.65
2022-12-23T15:10:21.348Z,12.38
2022-12-23T15:12:52.259Z,12.57
2022-12-23T15:15:25.077Z,13.38
2022-12-23T15:18:21.378Z,14.27
2022-12-23T15:20:59.411Z,14.25
2022-12-23T15:23:26.840Z,12.98
2022-12-23T15:25:58.985Z,11.77
2022-12-23T15:28:36.550Z,12.85
2022-12-23T15:31:04.632Z,12.65
2022-12-23T15:34:05.409Z,13.18
2022-12-23T15:36:35.764Z,12.98
2022-12-23T15:39:08.395Z,13.80
2022-12-23T15:41:43.791Z,13.02
2022-12-23T15:44:13.471Z,14.52
2022-12-23T15:46:40.928Z,12.85
2022-12-23T15:49:11.076Z,13.65
2022-12-23T15:52:09.774Z,13.55
2022-12-23T15:54:53.031Z,14.00
2022-12-23T15:57:20.670Z,13.25
2022-12-23T15:59:47.853Z,13.75
2022-12-23T16:05:33.332Z,13.90
2022-12-23T16:08:16.404Z,14.25
2022-12-23T16:10:55.774Z,15.35
2022-12-23T16:13:23.276Z,15.48
2022-12-23T16:15:50.612Z,15.02
2022-12-23T16:18:23.263Z,14.18
2022-12-23T16:20:57.768Z,16.17
2022-12-23T16:23:25.049Z,14.52
2022-12-23T16:25:52.757Z,14.70
2022-12-23T16:28:26.413Z,14.77
2022-12-23T16:30:55.327Z,16.13
2022-12-23T16:33:31.566Z,16.73
2022-12-23T16:36:26.209Z,15.18
2022-12-23T16:38:59.036Z,15.63
2022-12-23T16:41:26.357Z,15.32
2022-12-23T16:43:53.853Z,13.90
2022-12-23T16:46:22.605Z,13.70
2022-12-23T16:48:59.864Z,16.83
2022-12-23T16:51:28.010Z,16.52
2022-12-23T16:53:56.704Z,14.82
2022-12-23T16:56:34.989Z,15.52
2022-12-23T16:59:02.357Z,15.82
2022-12-23T17:01:42.542Z,14.32
2022-12-23T17:04:09.992Z,13.63
2022-12-23T17:06:37.930Z,13.57
2022-12-23T17:09:05.621Z,15.70
2022-12-23T17:11:42.948Z,15.27
2022-12-23T17:14:20.688Z,14.68
2022-12-23T17:16:48.289Z,14.55
2022-12-23T17:19:20.525Z,15.63
2022-12-23T17:21:50.866Z,15.85
2022-12-23T17:24:23.087Z,15.02
2022-12-23T17:26:50.446Z,14.73
2022-12-23T17:29:19.982Z,16.60
2022-12-23T17:31:47.697Z,16.15
2022-12-23T17:34:19.628Z,16.27
2022-12-23T17:36:50.252Z,16.08
2022-12-23T17:39:19.060Z,15.77
2022-12-23T17:41:46.544Z,16.50
2022-12-23T17:44:14.503Z,17.42
2022-12-23T17:46:41.843Z,17.42
2022-12-23T17:49:09.178Z,18.10
2022-12-23T17:51:36.564Z,18.08
2022-12-23T17:54:06.430Z,16.90
2022-12-23T17:56:33.738Z,18.50
2022-12-23T17:59:00.932Z,19.48
2022-12-23T18:01:30.381Z,18.35
2022-12-23T18:03:58.481Z,19.52
2022-12-23T18:06:27.324Z,19.75
2022-12-23T18:08:54.638Z,18.75
2022-12-23T18:11:34.815Z,19.83
2022-12-23T18:14:02.207Z,19.75
2022-12-23T18:16:29.812Z,20.25
2022-12-23T18:18:57.143Z,20.92
2022-12-23T18:21:26.130Z,20.85
2022-12-23T18:23:54.063Z,21.38
2022-12-23T18:26:21.316Z,18.95
2022-12-23T18:28:48.690Z,20.02
2022-12-23T18:31:17.966Z,19.00
2022-12-23T18:33:45.548Z,18.63
2022-12-23T18:36:22.901Z,18.90
2022-12-23T18:38:50.227Z,20.58
2022-12-23T18:41:17.647Z,20.13
2022-12-23T18:43:45.140Z,18.95
2022-12-23T18:46:12.424Z,18.73
2022-12-23T18:48:39.691Z,17.40
2022-12-23T18:51:06.997Z,17.02
2022-12-23T18:53:34.233Z,18.27
2022-12-23T18:56:01.459Z,17.15
2022-12-23T18:58:28.688Z,17.70
2022-12-23T19:00:56.931Z,17.42
2022-12-23T19:03:28.044Z,18.08
2022-12-23T19:05:55.952Z,18.05
2022-12-23T19:08:26.983Z,17.08
2022-12-23T19:10:55.031Z,16.98
2022-12-23T19:13:22.807Z,17.58
2022-12-23T19:15:50.251Z,16.63
2022-12-23T19:18:18.944Z,16.63
2022-12-23T19:20:46.356Z,16.67
2022-12-23T19:23:13.683Z,16.55
2022-12-23T19:25:42.058Z,15.95
2022-12-23T19:28:10.306Z,14.60
2022-12-23T19:30:40.574Z,14.98
2022-12-23T19:33:08.302Z,13.90
2022-12-23T19:35:36.005Z,16.77
2022-12-23T19:38:03.286Z,15.45
2022-12-23T19:40:30.705Z,14.18
2022-12-23T19:42:58.007Z,14.85
2022-12-23T19:45:25.583Z,15.20
2022-12-23T19:47:53.263Z,15.20
2022-12-23T19:50:22.247Z,14.07
2022-12-23T19:52:52.332Z,15.07
2022-12-23T19:55:19.586Z,15.10
2022-12-23T19:57:47.396Z,15.13
2022-12-23T20:00:15.964Z,13.18
2022-12-23T20:02:43.583Z,13.88
2022-12-23T20:05:11.060Z,14.50
2022-12-23T20:07:38.766Z,12.43
2022-12-23T20:10:07.184Z,12.63
2022-12-23T20:12:34.531Z,13.30
2022-12-23T20:15:02.090Z,13.05
2022-12-23T20:17:29.583Z,13.75
2022-12-23T20:19:57.405Z,14.82
2022-12-23T20:22:24.653Z,13.60
2022-12-23T20:24:51.913Z,13.65
2022-12-23T20:27:25.904Z,13.50
2022-12-23T20:29:55.071Z,13.48
2022-12-23T20:32:22.415Z,13.30
2022-12-23T20:34:50.257Z,13.38
2022-12-23T20:37:17.695Z,12.68
2022-12-23T20:39:45.157Z,13.32
2022-12-23T20:42:12.399Z,13.63
2022-12-23T20:44:39.642Z,14.27
2022-12-23T20:47:07.796Z,13.40
2022-12-23T20:49:35.133Z,14.57
2022-12-23T20:52:02.511Z,13.73
2022-12-23T20:54:33.567Z,13.65
2022-12-23T20:57:02.026Z,14.40
2022-12-23T20:59:29.436Z,14.43
2022-12-23T21:01:58.770Z,16.30
2022-12-23T21:04:26.104Z,16.73
2022-12-23T21:06:53.489Z,15.65
2022-12-23T21:09:21.253Z,17.73
2022-12-23T21:11:48.617Z,18.90
2022-12-23T21:14:16.021Z,16.33
2022-12-23T21:16:43.449Z,17.10
2022-12-23T21:19:21.292Z,18.02
2022-12-23T21:21:48.732Z,15.30
2022-12-23T21:24:16.587Z,15.20
2022-12-23T21:26:48.865Z,16.27
2022-12-23T21:29:19.191Z,18.25
2022-12-23T21:31:46.654Z,17.95
2022-12-23T21:34:17.977Z,16.63
2022-12-23T21:39:16.205Z,17.08
2022-12-23T21:41:43.504Z,19.13
2022-12-23T21:44:13.553Z,19.98
2022-12-23T21:46:41.077Z,22.00
2022-12-23T21:49:09.183Z,22.15
2022-12-23T21:51:40.671Z,22.45
2022-12-23T21:54:10.750Z,23.70
2022-12-23T21:56:38.248Z,22.02
2022-12-23T21:59:07.307Z,23.08
2022-12-23T22:01:36.512Z,22.48
2022-12-23T22:04:04.177Z,23.15
2022-12-23T22:06:33.250Z,23.92
2022-12-23T22:09:00.484Z,21.52
2022-12-23T22:11:30.311Z,22.42
2022-12-23T22:13:58.788Z,21.65
2022-12-23T22:16:27.234Z,21.73
2022-12-23T22:18:54.781Z,21.00
2022-12-23T22:21:23.317Z,20.83
2022-12-23T22:23:51.247Z,19.65
2022-12-23T22:26:25.757Z,21.13
2022-12-23T22:28:57.944Z,19.88
2022-12-23T22:31:31.084Z,20.25
2022-12-23T22:33:58.711Z,19.45
2022-12-23T22:36:26.294Z,20.75
2022-12-23T22:38:55.173Z,19.65
2022-12-23T22:41:24.319Z,20.37
2022-12-23T22:43:51.863Z,18.27
2022-12-23T22:46:19.524Z,19.75
2022-12-23T22:48:46.996Z,20.05
2022-12-23T22:51:19.174Z,17.88
2022-12-23T22:53:46.494Z,18.38
2022-12-23T22:56:14.531Z,18.63
2022-12-23T22:58:41.845Z,20.42
2022-12-23T23:01:32.920Z,18.80
2022-12-23T23:04:01.185Z,20.55
2022-12-23T23:06:30.580Z,18.65
2022-12-23T23:08:58.112Z,20.30
2022-12-23T23:11:25.823Z,18.38
2022-12-23T23:13:53.987Z,19.23
2022-12-23T23:16:21.444Z,18.52
2022-12-23T23:18:49.230Z,19.75
2022-12-23T23:21:16.590Z,19.80
2022-12-23T23:23:43.816Z,20.05
2022-12-23T23:26:11.258Z,19.85
2022-12-23T23:28:39.449Z,20.02
2022-12-23T23:31:40.561Z,21.35
2022-12-23T23:33:54.606Z,18.85
2022-12-23T23:36:21.908Z,19.20
2022-12-23T23:38:49.186Z,17.92
2022-12-23T23:41:22.526Z,18.30
2022-12-23T23:43:51.173Z,19.45
2022-12-23T23:46:19.331Z,18.85
2022-12-23T23:48:46.672Z,20.30
2022-12-23T23:51:15.068Z,18.48
2022-12-23T23:53:42.551Z,18.92
2022-12-23T23:56:09.893Z,18.05
2022-12-23T23:58:37.720Z,17.73
